Time;durP1;ratioP1;P1;durP2;ratioP2;P2;SDS_P1;SDS_P2;PMS_P1;PMS_P2;Temp;Humidity;BMP_temperature;BMP_pressure;BME280_temperature;BME280_humidity;BME280_pressure;Samples;Min_cycle;Max_cycle;Signal;HPM_P1;HPM_P2
2023/07/29 00:41:53;;;;;;;4.60;2.60;;;;;;;14.45;100.00;95493.91;7370493;19;20444;-95
2023/07/29 00:44:56;;;;;;;3.67;2.47;;;;;;;15.07;100.00;95584.31;7434180;19;20439;-95
2023/07/29 00:47:26;;;;;;;3.50;3.00;;;;;;;14.06;100.00;95434.38;7429503;19;20434;-96
2023/07/29 00:49:55;;;;;;;3.10;2.80;;;;;;;14.27;100.00;95473.63;7434212;19;20408;-96
2023/07/29 00:52:25;;;;;;;4.03;2.67;;;;;;;15.16;100.00;95597.31;7433077;19;20393;-95
2023/07/29 00:54:54;;;;;;;3.13;2.57;;;;;;;14.28;100.00;95477.78;7430124;19;20404;-96
2023/07/29 00:57:25;;;;;;;4.70;2.73;;;;;;;15.91;100.00;95717.59;7431601;19;20419;-95
2023/07/29 00:59:53;;;;;;;2.80;2.60;;;;;;;14.21;100.00;95459.91;7434194;19;20444;-96
2023/07/29 01:02:26;;;;;;;3.87;2.70;;;;;;;14.85;100.00;95540.13;7434115;19;20412;-95
2023/07/29 01:05:03;;;;;;;3.07;2.87;;;;;;;14.90;100.00;95552.31;7433430;19;20396;-96
2023/07/29 01:08:03;;;;;;;3.03;2.83;;;;;;;16.19;100.00;95743.59;7430890;19;20424;-95
2023/07/29 01:38:06;;;;;;;3.70;3.40;;;;;;;15.07;100.00;95581.66;7427770;19;20412;-94
2023/07/29 01:40:35;;;;;;;6.53;3.43;;;;;;;14.18;100.00;95442.81;7429231;19;20384;-94
2023/07/29 01:43:15;;;;;;;3.20;3.00;;;;;;;14.93;100.00;95562.19;7430598;19;20392;-95
2023/07/29 03:09:10;;;;;;;3.67;3.37;;;;;;;14.27;100.00;95463.75;7432110;19;20431;-94
2023/07/29 03:17:50;;;;;;;6.43;3.70;;;;;;;14.49;100.00;95499.25;7440142;19;20413;-96
2023/07/29 03:20:20;;;;;;;4.17;3.87;;;;;;;14.18;100.00;95458.00;7433520;19;20376;-94
2023/07/29 03:22:48;;;;;;;3.40;3.20;;;;;;;15.83;100.00;95694.69;7434528;19;20436;-95
2023/07/29 03:25:20;;;;;;;4.07;3.77;;;;;;;14.92;100.00;95558.78;7433664;19;20395;-95
2023/07/29 03:28:01;;;;;;;3.90;3.60;;;;;;;14.85;100.00;95552.66;7433094;19;20413;-94
2023/07/29 03:30:33;;;;;;;4.73;3.40;;;;;;;14.33;100.00;95458.84;7433198;19;20448;-94
2023/07/29 03:33:13;;;;;;;4.20;3.90;;;;;;;15.22;100.00;95574.50;7436134;19;20400;-94
2023/07/29 03:35:44;;;;;;;3.40;3.13;;;;;;;15.44;100.00;95630.53;7434653;19;20406;-95
2023/07/29 03:38:25;;;;;;;3.97;3.67;;;;;;;13.94;100.00;95416.84;7431810;19;20409;-95
2023/07/29 03:40:54;;;;;;;3.70;3.50;;;;;;;14.86;100.00;95557.63;7433143;19;20388;-95
2023/07/29 03:43:24;;;;;;;3.87;3.57;;;;;;;14.95;100.00;95559.91;7436583;19;20388;-95
2023/07/29 03:46:08;;;;;;;3.80;3.60;;;;;;;13.90;100.00;95402.78;7434613;19;20407;-94
2023/07/29 03:48:42;;;;;;;3.60;3.33;;;;;;;15.12;100.00;95569.16;7430394;19;20460;-96
2023/07/29 03:51:12;;;;;;;3.30;3.00;;;;;;;15.50;100.00;95642.38;7435637;19;20377;-94
2023/07/29 03:53:39;;;;;;;3.40;3.10;;;;;;;14.70;100.00;95515.34;7432588;19;20377;-94
2023/07/29 03:56:07;;;;;;;4.30;3.20;;;;;;;14.54;100.00;95498.88;7432039;19;20393;-95
2023/07/29 03:58:43;;;;;;;3.57;3.17;;;;;;;14.04;100.00;95424.13;7434680;19;20424;-94
2023/07/29 04:01:24;;;;;;;4.93;3.13;;;;;;;14.10;100.00;95433.25;7434566;19;20412;-96
2023/07/29 04:04:05;;;;;;;4.00;2.97;;;;;;;14.06;100.00;95424.50;7435289;19;20401;-95
2023/07/29 04:06:33;;;;;;;3.70;3.40;;;;;;;15.09;100.00;95591.97;7433741;19;20436;-95
2023/07/29 04:09:04;;;;;;;3.53;3.27;;;;;;;14.23;100.00;95435.63;7433807;19;20436;-95
2023/07/29 04:11:34;;;;;;;3.40;3.20;;;;;;;14.67;100.00;95505.41;7434370;19;20388;-96
2023/07/29 04:14:05;;;;;;;3.37;3.07;;;;;;;15.59;100.00;95653.44;7435257;19;20404;-92
2023/07/29 04:16:35;;;;;;;3.00;2.80;;;;;;;14.49;100.00;95473.41;7434004;19;20420;-94
2023/07/29 04:19:04;;;;;;;2.83;2.63;;;;;;;14.60;100.00;95496.66;7429914;19;20408;-94
2023/07/29 04:21:32;;;;;;;3.30;2.77;;;;;;;15.08;100.00;95561.13;7431163;19;20416;-96
2023/07/29 04:24:13;;;;;;;3.30;3.00;;;;;;;15.10;100.00;95571.44;7430643;19;20398;-93
2023/07/29 04:26:49;;;;;;;3.90;3.17;;;;;;;15.13;100.00;95568.78;7431351;19;20365;-94
2023/07/29 04:29:30;;;;;;;3.63;3.33;;;;;;;14.94;100.00;95548.50;7431767;19;20427;-93
2023/07/29 04:31:58;;;;;;;5.13;3.27;;;;;;;15.06;100.00;95553.50;7431785;19;20405;-94
2023/07/29 04:34:29;;;;;;;3.00;2.70;;;;;;;15.54;100.00;95587.19;7431005;19;20396;-93
2023/07/29 04:36:56;;;;;;;3.83;3.40;;;;;;;15.45;100.00;95584.09;7433633;19;20400;-94
2023/07/29 04:39:26;;;;;;;3.80;3.00;;;;;;;14.38;100.00;95408.72;7429282;19;20449;-96
2023/07/29 04:41:58;;;;;;;7.77;3.40;;;;;;;15.27;100.00;95558.19;7428751;19;20381;-93
2023/07/29 04:44:25;;;;;;;2.57;2.37;;;;;;;15.86;100.00;95641.38;7432375;19;20376;-95
2023/07/29 04:46:55;;;;;;;2.90;2.70;;;;;;;15.37;100.00;95562.78;7432851;19;20417;-94
2023/07/29 04:49:23;;;;;;;2.83;2.63;;;;;;;14.51;100.00;95435.03;7429887;19;20471;-95
2023/07/29 04:51:52;;;;;;;3.10;2.83;;;;;;;15.21;100.00;95582.88;7431942;19;20393;-94
2023/07/29 04:54:22;;;;;;;3.50;2.70;;;;;;;14.31;100.00;95451.25;7431713;19;20393;-93
2023/07/29 04:56:50;;;;;;;2.27;2.07;;;;;;;15.89;100.00;95667.31;7430618;19;20385;-95
2023/07/29 04:59:18;;;;;;;2.77;2.50;;;;;;;15.15;100.00;95555.09;7430250;19;20432;-93
2023/07/29 05:01:45;;;;;;;2.80;2.60;;;;;;;15.28;100.00;95577.59;7431623;19;20416;-94
2023/07/29 05:04:13;;;;;;;2.70;2.50;;;;;;;14.45;100.00;95456.66;7433374;19;20392;-96
2023/07/29 05:06:40;;;;;;;3.90;3.23;;;;;;;15.45;100.00;95603.53;7429402;19;20397;-95
2023/07/29 05:09:18;;;;;;;2.70;2.50;;;;;;;14.54;100.00;95466.19;7428441;19;20417;-93
2023/07/29 05:11:48;;;;;;;2.80;2.57;;;;;;;14.46;100.00;95446.78;7430384;19;20656;-96
2023/07/29 05:14:17;;;;;;;7.00;3.10;;;;;;;14.35;100.00;95446.69;7433125;19;20389;-96
2023/07/29 05:16:45;;;;;;;2.60;2.40;;;;;;;14.72;100.00;95483.78;7431586;19;20405;-95
2023/07/29 05:19:13;;;;;;;2.37;2.27;;;;;;;15.47;100.00;95576.50;7431127;19;20456;-95
2023/07/29 05:21:41;;;;;;;3.03;2.87;;;;;;;14.99;100.00;95504.81;7431353;19;20397;-96
2023/07/29 05:24:11;;;;;;;3.23;3.03;;;;;;;15.52;100.00;95560.16;7433733;19;20404;-96
2023/07/29 05:26:43;;;;;;;3.00;2.80;;;;;;;16.15;100.00;95657.44;7431535;19;20425;-96
2023/07/29 05:29:13;;;;;;;7.93;2.80;;;;;;;15.70;100.00;95584.97;7430304;19;20443;-95
2023/07/29 05:31:41;;;;;;;5.30;3.27;;;;;;;15.76;100.00;95566.69;7430853;19;20404;-96
2023/07/29 05:34:09;;;;;;;3.50;3.20;;;;;;;15.15;100.00;95469.88;7429611;19;20419;-96
2023/07/29 05:36:36;;;;;;;2.90;2.70;;;;;;;15.95;100.00;95591.13;7432655;19;20420;-95
2023/07/29 05:39:07;;;;;;;3.53;2.70;;;;;;;17.05;100.00;95755.19;7430887;19;20447;-96
2023/07/29 05:41:34;;;;;;;3.27;2.83;;;;;;;17.09;100.00;95754.06;7431242;19;20405;-96
2023/07/29 05:44:06;;;;;;;2.93;2.73;;;;;;;16.07;100.00;95590.00;7432275;19;20393;-96
2023/07/29 05:46:36;;;;;;;3.10;2.57;;;;;;;15.45;100.00;95480.22;7431496;19;20400;-96
2023/07/29 05:49:07;;;;;;;2.87;2.67;;;;;;;15.85;100.00;95530.56;7428855;19;20439;-95
2023/07/29 05:51:35;;;;;;;2.50;2.20;;;;;;;16.60;100.00;95615.94;7432383;19;20388;-96
2023/07/29 05:54:11;;;;;;;3.17;2.80;;;;;;;16.27;100.00;95526.38;7430504;19;20388;-96
2023/07/29 05:56:49;;;;;;;2.70;2.50;;;;;;;16.98;100.00;95614.41;7430407;19;20436;-95
2023/07/29 05:59:23;;;;;;;4.53;3.07;;;;;;;16.09;100.00;95457.03;7429922;19;20456;-94
2023/07/29 06:01:53;;;;;;;3.40;3.13;;;;;;;17.22;100.00;95604.03;7431439;19;20435;-96
2023/07/29 06:04:21;;;;;;;3.50;3.30;;;;;;;16.11;100.00;95451.31;7432237;19;20404;-96
2023/07/29 06:06:55;;;;;;;2.80;2.60;;;;;;;15.94;100.00;95468.88;7430074;19;20403;-96
2023/07/29 06:09:29;;;;;;;3.23;2.93;;;;;;;16.59;100.00;95554.94;7430409;19;20439;-96
2023/07/29 06:11:56;;;;;;;2.73;2.53;;;;;;;17.02;100.00;95579.66;7428876;19;20400;-96
2023/07/29 06:14:33;;;;;;;2.53;2.33;;;;;;;17.18;100.00;95555.94;7432407;19;20392;-96
2023/07/29 06:17:03;;;;;;;3.00;2.57;;;;;;;17.17;100.00;95607.09;7430357;19;20431;-96
2023/07/29 06:19:45;;;;;;;3.80;3.40;;;;;;;16.73;100.00;95538.94;7429636;19;20382;-96
2023/07/29 06:22:17;;;;;;;3.37;3.10;;;;;;;17.43;100.00;95660.84;7430421;19;20419;-96
2023/07/29 06:24:48;;;;;;;3.10;2.30;;;;;;;16.90;100.00;95561.38;7429658;19;20454;-96
2023/07/29 06:27:16;;;;;;;2.23;2.03;;;;;;;15.96;100.00;95440.69;7428872;19;20419;-96
2023/07/29 06:29:51;;;;;;;2.57;2.37;;;;;;;15.93;100.00;95451.34;7431436;19;20680;-95
2023/07/29 06:35:11;;;;;;;3.13;2.93;;;;;;;17.00;100.00;95568.63;7397701;19;20372;-92
2023/07/29 06:37:38;;;;;;;2.63;2.43;;;;;;;17.28;100.00;95613.19;7395452;19;20907;-92
2023/07/29 06:40:06;;;;;;;4.47;2.53;;;;;;;17.70;100.00;95669.19;7393559;19;20394;-92
2023/07/29 06:42:33;;;;;;;2.80;2.60;;;;;;;16.27;100.00;95452.44;7395357;19;20943;-92
2023/07/29 06:45:00;;;;;;;5.50;2.50;;;;;;;17.45;100.00;95633.72;7394301;19;20391;-92
2023/07/29 06:47:27;;;;;;;3.10;2.90;;;;;;;16.45;100.00;95487.09;7395103;19;20401;-92
2023/07/29 06:49:55;;;;;;;3.03;2.53;;;;;;;16.14;100.00;95445.97;7394483;19;20934;-92
2023/07/29 06:52:22;;;;;;;13.07;10.70;;;;;;;16.20;100.00;95459.72;7394742;19;20947;-92
2023/07/29 06:54:49;;;;;;;3.50;2.80;;;;;;;15.93;100.00;95422.78;7393916;19;20744;-92
2023/07/29 06:57:20;;;;;;;4.53;2.30;;;;;;;17.95;100.00;95727.94;7394814;19;20389;-93
2023/07/29 06:59:50;;;;;;;2.50;2.30;;;;;;;18.13;100.00;95725.16;7394765;19;20969;-92
2023/07/29 07:02:17;;;;;;;2.63;2.23;;;;;;;17.22;100.00;95577.31;7394634;19;20376;-92
2023/07/29 07:04:45;;;;;;;2.00;1.90;;;;;;;16.17;100.00;95399.91;7395187;19;20395;-91
2023/07/29 07:07:11;;;;;;;2.60;2.40;;;;;;;16.79;100.00;95492.00;7403277;19;20896;-90
2023/07/29 07:09:39;;;;;;;2.20;2.00;;;;;;;18.26;100.00;95688.03;7399255;19;20407;-90
2023/07/29 07:12:06;;;;;;;6.70;2.33;;;;;;;18.23;100.00;95654.78;7414894;19;20424;-91
2023/07/29 07:14:33;;;;;;;1.73;1.63;;;;;;;18.22;100.00;95647.16;7426285;19;20436;-91
2023/07/29 07:17:00;;;;;;;3.50;2.13;;;;;;;18.42;100.00;95661.53;7413484;19;20372;-91
2023/07/29 07:19:27;;;;;;;2.23;2.03;;;;;;;18.67;100.00;95692.75;7402912;19;20456;-91
2023/07/29 07:21:54;;;;;;;3.47;2.00;;;;;;;18.48;100.00;95661.88;7401950;19;20680;-91
2023/07/29 07:24:22;;;;;;;3.70;2.10;;;;;;;17.64;100.00;95534.38;7401284;19;20373;-91
2023/07/29 07:26:48;;;;;;;3.70;3.40;;;;;;;17.87;100.00;95583.91;7403663;19;20440;-90
2023/07/29 07:29:16;;;;;;;3.90;3.57;;;;;;;18.27;100.00;95636.78;7401674;19;20392;-90
2023/07/29 07:31:51;;;;;;;2.63;1.90;;;;;;;18.27;100.00;95652.84;7402637;19;20438;-91
2023/07/29 07:34:21;;;;;;;4.07;2.30;;;;;;;18.14;100.00;95627.69;7404113;19;20384;-90
2023/07/29 07:36:49;;;;;;;2.30;2.10;;;;;;;17.60;100.00;95581.72;7410478;19;20381;-91
2023/07/29 07:39:16;;;;;;;8.30;2.50;;;;;;;18.00;100.00;95686.63;7401861;19;20393;-92
2023/07/29 07:42:35;;;;;;;2.33;2.13;;;;;;;16.21;100.00;95439.88;7401701;19;20496;-92
2023/07/29 07:49:51;;;;;;;4.53;2.70;;;;;;;17.35;100.00;95722.72;7402753;19;20360;-92
2023/07/29 08:21:49;;;;;;;;;;;;;;;;;;;;;
2023/07/29 10:35:25;;;;;;;3.67;2.07;;;;;;;16.97;100.00;95725.06;5202613;19;4577055;-96
2023/07/29 10:37:55;;;;;;;2.67;2.47;;;;;;;17.04;100.00;95754.41;7433960;19;20163;-95
2023/07/29 10:40:24;;;;;;;2.40;2.20;;;;;;;16.06;100.00;95603.72;7436298;19;20389;-95
2023/07/29 10:43:02;;;;;;;4.90;3.10;;;;;;;15.01;100.00;95466.03;7434364;19;20405;-96
2023/07/29 10:45:38;;;;;;;3.10;2.33;;;;;;;15.09;100.00;95448.19;7433098;19;20377;-96
2023/07/29 10:48:35;;;;;;;3.50;2.30;;;;;;;16.14;100.00;95555.31;7432899;19;20476;-95
2023/07/29 10:51:24;;;;;;;2.17;1.83;;;;;;;17.61;100.00;95727.63;7431773;19;20393;-96
2023/07/29 10:53:58;;;;;;;11.60;7.83;;;;;;;17.31;100.00;95673.84;7433663;19;20405;-96
2023/07/29 10:56:37;;;;;;;3.47;3.17;;;;;;;17.85;100.00;95714.59;7436044;19;20389;-95
2023/07/29 10:59:43;;;;;;;5.07;4.07;;;;;;;18.10;100.00;95717.16;7429694;19;20421;-96
2023/07/29 11:02:31;;;;;;;3.97;2.17;;;;;;;17.96;100.00;95649.19;7430255;19;20401;-95
2023/07/29 11:04:59;;;;;;;3.73;3.10;;;;;;;16.70;100.00;95431.03;7431843;19;20385;-94
2023/07/29 11:07:27;;;;;;;3.23;2.27;;;;;;;18.35;100.00;95669.63;7432504;19;20391;-96
2023/07/29 11:10:00;;;;;;;7.97;7.17;;;;;;;18.56;100.00;95724.94;7431860;19;20410;-95
2023/07/29 11:12:51;;;;;;;2.40;1.90;;;;;;;18.66;100.00;95718.78;7433648;19;20436;-96
2023/07/29 11:15:29;;;;;;;2.50;1.97;;;;;;;18.50;100.00;95683.66;7429990;19;20402;-96
2023/07/29 11:18:00;;;;;;;2.33;2.13;;;;;;;16.75;100.00;95435.19;7431124;19;20420;-96
2023/07/29 11:20:32;;;;;;;2.57;2.10;;;;;;;17.38;100.00;95556.28;7433341;19;20401;-96
2023/07/29 11:23:13;;;;;;;2.27;2.07;;;;;;;16.49;100.00;95410.47;7429439;19;20385;-94
2023/07/29 11:25:43;;;;;;;1.83;1.73;;;;;;;18.66;100.00;95713.41;7430333;19;20393;-96
2023/07/29 12:44:36;;;;;;;2.50;2.30;;;;;;;18.05;100.00;95375.91;7420545;19;20500;-96
2023/07/29 13:54:10;;;;;;;2.17;2.00;;;;;;;23.57;100.00;95664.13;7421844;19;20455;-96
2023/07/29 14:05:23;;;;;;;3.47;2.30;;;;;;;19.93;100.00;95367.25;7409259;19;20448;-96
2023/07/29 14:08:11;;;;;;;2.30;2.10;;;;;;;19.16;100.00;95313.72;7432997;19;20431;-96
2023/07/29 14:10:39;;;;;;;2.50;2.30;;;;;;;19.30;100.00;95344.91;7435891;19;20381;-96
2023/07/29 14:13:09;;;;;;;2.80;2.60;;;;;;;19.28;100.00;95339.19;7434335;19;20385;-96
2023/07/29 14:15:44;;;;;;;2.70;2.50;;;;;;;20.89;100.00;95489.03;7436734;19;20395;-96
2023/07/29 14:18:25;;;;;;;2.73;2.53;;;;;;;19.50;100.00;95324.28;7426953;19;20450;-96
2023/07/29 14:27:00;;;;;;;2.40;2.20;;;;;;;19.52;100.00;95354.13;7415573;19;20452;-96
2023/07/29 14:29:41;;;;;;;3.00;2.80;;;;;;;20.51;100.00;95375.03;7432213;19;20509;-96
2023/07/29 17:57:42;;;;;;;1.70;1.60;;;;;;;19.27;100.00;95527.97;7436707;19;20427;-96
2023/07/29 18:00:23;;;;;;;2.20;2.00;;;;;;;18.53;100.00;95448.03;7434979;19;20392;-96
2023/07/29 21:24:46;;;;;;;3.07;2.83;;;;;;;13.98;100.00;95462.78;7428851;19;20455;-96
2023/07/29 21:27:15;;;;;;;4.10;3.80;;;;;;;14.71;100.00;95551.44;7429235;19;20375;-96
2023/07/29 21:29:43;;;;;;;3.30;3.10;;;;;;;14.76;100.00;95556.41;7429584;19;20416;-96
2023/07/29 21:32:13;;;;;;;4.53;4.13;;;;;;;15.86;100.00;95745.34;7433373;19;20368;-96
2023/07/29 21:34:48;;;;;;;7.80;3.73;;;;;;;13.27;100.00;95425.03;7431840;19;20356;-96
2023/07/29 21:37:16;;;;;;;6.40;3.20;;;;;;;13.15;100.00;95402.13;7437347;19;20367;-96
2023/07/29 21:40:01;;;;;;;3.50;3.20;;;;;;;14.38;100.00;95586.16;7437217;19;20372;-96
2023/07/29 21:42:32;;;;;;;4.40;3.43;;;;;;;13.18;100.00;95430.63;7436260;19;20345;-96
2023/07/29 21:45:13;;;;;;;8.93;4.63;;;;;;;14.08;100.00;95568.44;7441136;19;20360;-96
2023/07/29 21:47:43;;;;;;;3.97;3.60;;;;;;;13.26;100.00;95456.13;7435740;19;20440;-96
2023/07/29 21:50:14;;;;;;;4.93;3.57;;;;;;;13.69;100.00;95500.91;7438372;19;20393;-96
2023/07/29 21:52:42;;;;;;;4.23;3.30;;;;;;;14.59;100.00;95610.28;7420304;19;20495;-96
2023/07/29 21:55:23;;;;;;;4.47;3.90;;;;;;;14.35;100.00;95582.34;7437748;19;20360;-96
2023/07/29 21:57:55;;;;;;;3.70;3.40;;;;;;;13.06;100.00;95430.09;7438707;19;20416;-96
2023/07/29 22:00:27;;;;;;;3.80;3.50;;;;;;;14.77;100.00;95754.09;7436723;19;20381;-96
2023/07/29 22:02:58;;;;;;;6.70;3.80;;;;;;;12.91;100.00;95496.25;7437446;19;20377;-96
2023/07/29 22:05:26;;;;;;;4.00;3.70;;;;;;;12.58;100.00;95417.44;7433142;19;20380;-96
2023/07/29 22:07:55;;;;;;;3.67;3.30;;;;;;;13.51;100.00;95522.75;7431365;19;20408;-96
2023/07/29 22:16:41;;;;;;;4.63;4.23;;;;;;;13.54;100.00;95498.09;7437496;19;20396;-96
2023/07/29 22:19:09;;;;;;;5.17;4.80;;;;;;;12.57;100.00;95423.13;7431715;19;20440;-95
2023/07/29 22:21:38;;;;;;;7.57;4.63;;;;;;;14.31;100.00;95703.09;7434721;19;20396;-96
2023/07/29 22:24:19;;;;;;;6.97;5.37;;;;;;;13.51;100.00;95585.72;7434602;19;20381;-96
2023/07/29 22:26:48;;;;;;;8.70;4.27;;;;;;;14.26;100.00;95711.41;7431929;19;20391;-96
2023/07/29 22:29:25;;;;;;;8.33;4.77;;;;;;;12.48;100.00;95404.06;7429898;19;20444;-96
2023/07/29 22:31:56;;;;;;;4.50;3.90;;;;;;;13.65;100.00;95559.31;7436402;19;20415;-96
2023/07/29 22:34:24;;;;;;;4.93;4.17;;;;;;;12.94;100.00;95447.00;7434635;19;20384;-96
2023/07/29 22:36:56;;;;;;;5.40;4.17;;;;;;;14.03;100.00;95594.59;7435517;19;20389;-96
2023/07/29 22:39:24;;;;;;;4.63;4.23;;;;;;;14.00;100.00;95605.94;7432549;19;20433;-96
2023/07/29 22:41:54;;;;;;;5.20;4.67;;;;;;;13.54;100.00;95559.19;7435889;19;20389;-96
2023/07/29 22:44:23;;;;;;;6.43;4.50;;;;;;;13.66;100.00;95570.69;7434222;19;20406;-96
2023/07/29 22:46:58;;;;;;;5.23;4.63;;;;;;;13.77;100.00;95593.59;7435992;19;20376;-96
2023/07/29 22:49:29;;;;;;;4.90;3.87;;;;;;;12.88;100.00;95469.69;7432529;19;20424;-96
2023/07/29 22:51:57;;;;;;;4.87;4.47;;;;;;;13.00;100.00;95474.75;7432962;19;20392;-96
2023/07/29 22:54:25;;;;;;;4.63;4.33;;;;;;;12.70;100.00;95427.81;7431373;19;20373;-96
